sensor_id;sensor_type;location;lat;lon;timestamp;pressure;altitude;pressure_sealevel;temperature;humidity
30714;BME280;17465;47.934;33.430;2023-01-27T00:01:17;57525.30;;;-140.43;96.88
30714;BME280;17465;47.934;33.430;2023-01-27T00:03:49;57499.88;;;-140.43;96.07
30714;BME280;17465;47.934;33.430;2023-01-27T00:06:19;57502.00;;;-140.43;95.60
30714;BME280;17465;47.934;33.430;2023-01-27T00:08:50;57502.00;;;-140.43;95.60
30714;BME280;17465;47.934;33.430;2023-01-27T00:11:21;57479.76;;;-140.43;97.17
30714;BME280;17465;47.934;33.430;2023-01-27T00:13:52;57515.77;;;-140.43;97.45
30714;BME280;17465;47.934;33.430;2023-01-27T00:16:23;57518.95;;;-140.43;96.84
30714;BME280;17465;47.934;33.430;2023-01-27T00:18:53;57517.89;;;-140.43;96.65
30714;BME280;17465;47.934;33.430;2023-01-27T00:21:24;57513.65;;;-140.43;95.94
30714;BME280;17465;47.934;33.430;2023-01-27T00:23:56;57531.66;;;-140.43;96.31
30714;BME280;17465;47.934;33.430;2023-01-27T00:26:26;57524.25;;;-140.43;96.58
30714;BME280;17465;47.934;33.430;2023-01-27T00:28:57;57533.77;;;-140.43;96.26
30714;BME280;17465;47.934;33.430;2023-01-27T00:31:27;57499.88;;;-140.43;96.58
30714;BME280;17465;47.934;33.430;2023-01-27T00:33:58;57499.88;;;-140.43;96.58
30714;BME280;17465;47.934;33.430;2023-01-27T00:36:30;57509.41;;;-140.43;96.54
30714;BME280;17465;47.934;33.430;2023-01-27T00:39:00;57527.42;;;-140.43;96.58
30714;BME280;17465;47.934;33.430;2023-01-27T00:41:31;57500.94;;;-140.43;96.97
30714;BME280;17465;47.934;33.430;2023-01-27T00:44:02;57502.00;;;-140.43;97.35
30714;BME280;17465;47.934;33.430;2023-01-27T00:46:33;57529.54;;;-140.43;97.54
30714;BME280;17465;47.934;33.430;2023-01-27T00:49:05;57529.54;;;-140.43;97.54
30714;BME280;17465;47.934;33.430;2023-01-27T00:51:35;57540.13;;;-140.43;97.57
30714;BME280;17465;47.934;33.430;2023-01-27T00:54:06;57506.24;;;-140.43;97.78
30714;BME280;17465;47.934;33.430;2023-01-27T00:56:37;57536.95;;;-140.43;97.90
30714;BME280;17465;47.934;33.430;2023-01-27T00:59:08;57544.37;;;-140.43;98.39
30714;BME280;17465;47.934;33.430;2023-01-27T01:01:39;57525.30;;;-140.43;98.95
30714;BME280;17465;47.934;33.430;2023-01-27T01:04:10;57525.30;;;-140.43;98.95
30714;BME280;17465;47.934;33.430;2023-01-27T01:06:43;57549.66;;;-140.43;98.30
30714;BME280;17465;47.934;33.430;2023-01-27T01:09:16;57536.95;;;-140.43;97.99
30714;BME280;17465;47.934;33.430;2023-01-27T01:11:47;57530.60;;;-140.43;97.38
30714;BME280;17465;47.934;33.430;2023-01-27T04:43:18;57534.84;;;-140.43;100.00
30714;BME280;17465;47.934;33.430;2023-01-27T04:45:51;57531.66;;;-140.43;100.00
30714;BME280;17465;47.934;33.430;2023-01-27T04:48:26;57531.66;;;-140.43;100.00
30714;BME280;17465;47.934;33.430;2023-01-27T04:50:56;57512.59;;;-140.43;100.00
30714;BME280;17465;47.934;33.430;2023-01-27T04:53:27;57508.36;;;-140.43;100.00
30714;BME280;17465;47.934;33.430;2023-01-27T04:56:03;57508.36;;;-140.43;100.00
30714;BME280;17465;47.934;33.430;2023-01-27T04:58:33;57534.84;;;-140.43;100.00
30714;BME280;17465;47.934;33.430;2023-01-27T05:01:04;57527.42;;;-140.43;100.00
30714;BME280;17465;47.934;33.430;2023-01-27T05:03:40;57527.42;;;-140.43;100.00
30714;BME280;17465;47.934;33.430;2023-01-27T05:06:09;57518.95;;;-140.43;100.00
30714;BME280;17465;47.934;33.430;2023-01-27T05:08:39;57510.48;;;-140.43;100.00
30714;BME280;17465;47.934;33.430;2023-01-27T05:11:11;57536.95;;;-140.43;100.00
30714;BME280;17465;47.934;33.430;2023-01-27T05:13:46;57543.31;;;-140.43;100.00
30714;BME280;17465;47.934;33.430;2023-01-27T05:16:21;57521.07;;;-140.43;100.00
30714;BME280;17465;47.934;33.430;2023-01-27T05:18:58;57510.48;;;-140.43;100.00
30714;BME280;17465;47.934;33.430;2023-01-27T05:21:53;57518.95;;;-140.43;100.00
30714;BME280;17465;47.934;33.430;2023-01-27T05:24:12;57524.25;;;-140.43;100.00
30714;BME280;17465;47.934;33.430;2023-01-27T05:26:43;57514.71;;;-140.43;100.00
30714;BME280;17465;47.934;33.430;2023-01-27T05:29:15;57517.89;;;-140.43;100.00
30714;BME280;17465;47.934;33.430;2023-01-27T05:31:46;57540.13;;;-140.43;100.00
30714;BME280;17465;47.934;33.430;2023-01-27T05:34:33;57515.77;;;-140.43;100.00
30714;BME280;17465;47.934;33.430;2023-01-27T05:37:04;57528.48;;;-140.43;100.00
30714;BME280;17465;47.934;33.430;2023-01-27T05:39:34;57520.01;;;-140.43;100.00
30714;BME280;17465;47.934;33.430;2023-01-27T05:42:05;57524.25;;;-140.43;100.00
30714;BME280;17465;47.934;33.430;2023-01-27T05:44:38;57510.48;;;-140.43;100.00
30714;BME280;17465;47.934;33.430;2023-01-27T05:47:08;57540.13;;;-140.43;100.00
30714;BME280;17465;47.934;33.430;2023-01-27T05:49:39;57540.13;;;-140.43;100.00
30714;BME280;17465;47.934;33.430;2023-01-27T05:52:09;57517.89;;;-140.43;100.00
30714;BME280;17465;47.934;33.430;2023-01-27T05:54:40;57518.95;;;-140.43;100.00
30714;BME280;17465;47.934;33.430;2023-01-27T05:57:11;57526.36;;;-140.43;100.00
30714;BME280;17465;47.934;33.430;2023-01-27T05:59:41;57526.36;;;-140.43;100.00
30714;BME280;17465;47.934;33.430;2023-01-27T06:02:19;57530.60;;;-140.43;100.00
30714;BME280;17465;47.934;33.430;2023-01-27T06:04:54;57527.42;;;-140.43;100.00
30714;BME280;17465;47.934;33.430;2023-01-27T06:07:21;57545.43;;;-140.43;100.00
30714;BME280;17465;47.934;33.430;2023-01-27T06:09:51;57539.07;;;-140.43;100.00
30714;BME280;17465;47.934;33.430;2023-01-27T06:12:25;57539.07;;;-140.43;100.00
30714;BME280;17465;47.934;33.430;2023-01-27T06:15:03;57491.41;;;-140.43;100.00
30714;BME280;17465;47.934;33.430;2023-01-27T06:17:29;57527.42;;;-140.43;100.00
30714;BME280;17465;47.934;33.430;2023-01-27T06:20:01;57516.83;;;-140.43;100.00
30714;BME280;17465;47.934;33.430;2023-01-27T06:22:32;57509.41;;;-140.43;100.00
30714;BME280;17465;47.934;33.430;2023-01-27T06:25:03;57509.41;;;-140.43;100.00
30714;BME280;17465;47.934;33.430;2023-01-27T06:27:35;57522.12;;;-140.43;100.00
30714;BME280;17465;47.934;33.430;2023-01-27T06:30:24;57515.77;;;-140.43;100.00
30714;BME280;17465;47.934;33.430;2023-01-27T06:32:55;57516.83;;;-140.43;100.00
30714;BME280;17465;47.934;33.430;2023-01-27T06:35:26;57516.83;;;-140.43;100.00
30714;BME280;17465;47.934;33.430;2023-01-27T06:38:04;57533.77;;;-140.43;100.00
30714;BME280;17465;47.934;33.430;2023-01-27T06:40:35;57513.65;;;-140.43;100.00
30714;BME280;17465;47.934;33.430;2023-01-27T06:43:10;57513.65;;;-140.43;100.00
30714;BME280;17465;47.934;33.430;2023-01-27T06:45:42;57521.07;;;-140.43;100.00
30714;BME280;17465;47.934;33.430;2023-01-27T06:48:12;57509.41;;;-140.43;100.00
30714;BME280;17465;47.934;33.430;2023-01-27T06:50:43;57498.82;;;-140.43;100.00
30714;BME280;17465;47.934;33.430;2023-01-27T06:53:13;57498.82;;;-140.43;100.00
30714;BME280;17465;47.934;33.430;2023-01-27T06:55:44;57511.54;;;-140.43;100.00
30714;BME280;17465;47.934;33.430;2023-01-27T06:58:15;57535.89;;;-140.43;100.00
30714;BME280;17465;47.934;33.430;2023-01-27T07:00:47;57503.06;;;-140.43;100.00
30714;BME280;17465;47.934;33.430;2023-01-27T07:03:23;57503.06;;;-140.43;100.00
30714;BME280;17465;47.934;33.430;2023-01-27T07:05:49;57528.48;;;-140.43;100.00
30714;BME280;17465;47.934;33.430;2023-01-27T07:08:20;57510.48;;;-140.43;100.00
30714;BME280;17465;47.934;33.430;2023-01-27T07:10:50;57524.25;;;-140.43;100.00
30714;BME280;17465;47.934;33.430;2023-01-27T07:13:23;57524.25;;;-140.43;100.00
30714;BME280;17465;47.934;33.430;2023-01-27T07:15:55;57512.59;;;-140.43;100.00
30714;BME280;17465;47.934;33.430;2023-01-27T07:18:28;57533.77;;;-140.43;100.00
30714;BME280;17465;47.934;33.430;2023-01-27T07:20:58;57529.54;;;-140.43;100.00
30714;BME280;17465;47.934;33.430;2023-01-27T07:23:29;57512.59;;;-140.43;100.00
30714;BME280;17465;47.934;33.430;2023-01-27T07:26:01;57524.25;;;-140.43;100.00
30714;BME280;17465;47.934;33.430;2023-01-27T07:28:34;57498.82;;;-140.43;100.00
30714;BME280;17465;47.934;33.430;2023-01-27T07:31:06;57498.82;;;-140.43;100.00
30714;BME280;17465;47.934;33.430;2023-01-27T07:33:55;57513.65;;;-140.43;100.00
30714;BME280;17465;47.934;33.430;2023-01-27T07:36:29;57513.65;;;-140.43;100.00
30714;BME280;17465;47.934;33.430;2023-01-27T07:39:05;57506.24;;;-140.43;100.00
30714;BME280;17465;47.934;33.430;2023-01-27T07:41:41;57541.19;;;-140.43;100.00
30714;BME280;17465;47.934;33.430;2023-01-27T07:44:13;57520.01;;;-140.43;100.00
30714;BME280;17465;47.934;33.430;2023-01-27T07:46:45;57516.83;;;-140.43;100.00
30714;BME280;17465;47.934;33.430;2023-01-27T07:49:21;57530.60;;;-140.43;100.00
30714;BME280;17465;47.934;33.430;2023-01-27T07:51:52;57494.59;;;-140.43;100.00
30714;BME280;17465;47.934;33.430;2023-01-27T07:54:22;57505.18;;;-140.43;100.00
30714;BME280;17465;47.934;33.430;2023-01-27T07:56:52;57522.12;;;-140.43;100.00
30714;BME280;17465;47.934;33.430;2023-01-27T07:59:35;57496.71;;;-140.43;100.00
30714;BME280;17465;47.934;33.430;2023-01-27T08:02:07;57496.71;;;-140.43;100.00
30714;BME280;17465;47.934;33.430;2023-01-27T08:04:40;57514.71;;;-140.43;100.00
30714;BME280;17465;47.934;33.430;2023-01-27T08:07:12;57536.95;;;-140.43;100.00
30714;BME280;17465;47.934;33.430;2023-01-27T08:09:46;57515.77;;;-140.43;100.00
30714;BME280;17465;47.934;33.430;2023-01-27T08:12:24;57530.60;;;-140.43;100.00
30714;BME280;17465;47.934;33.430;2023-01-27T08:14:50;57507.30;;;-140.43;100.00
30714;BME280;17465;47.934;33.430;2023-01-27T08:17:23;57524.25;;;-140.43;100.00
30714;BME280;17465;47.934;33.430;2023-01-27T08:19:54;57517.89;;;-140.43;100.00
30714;BME280;17465;47.934;33.430;2023-01-27T08:22:24;57517.89;;;-140.43;100.00
30714;BME280;17465;47.934;33.430;2023-01-27T08:24:54;57518.95;;;-140.43;100.00
30714;BME280;17465;47.934;33.430;2023-01-27T08:27:25;57529.54;;;-140.43;100.00
30714;BME280;17465;47.934;33.430;2023-01-27T08:29:58;57504.12;;;-140.43;100.00
30714;BME280;17465;47.934;33.430;2023-01-27T08:32:29;57505.18;;;-140.43;100.00
30714;BME280;17465;47.934;33.430;2023-01-27T08:34:59;57505.18;;;-140.43;100.00
30714;BME280;17465;47.934;33.430;2023-01-27T08:37:35;57471.29;;;-140.43;100.00
30714;BME280;17465;47.934;33.430;2023-01-27T08:40:07;57471.29;;;-140.43;100.00
30714;BME280;17465;47.934;33.430;2023-01-27T08:42:41;57508.36;;;-140.43;100.00
30714;BME280;17465;47.934;33.430;2023-01-27T08:45:19;57509.41;;;-140.43;100.00
30714;BME280;17465;47.934;33.430;2023-01-27T08:47:48;57507.30;;;-140.43;100.00
30714;BME280;17465;47.934;33.430;2023-01-27T08:50:20;57507.30;;;-140.43;100.00
30714;BME280;17465;47.934;33.430;2023-01-27T08:52:52;57506.24;;;-140.43;100.00
30714;BME280;17465;47.934;33.430;2023-01-27T08:58:27;57504.12;;;-140.43;100.00
30714;BME280;17465;47.934;33.430;2023-01-27T09:04:01;57496.71;;;-140.43;100.00
30714;BME280;17465;47.934;33.430;2023-01-27T09:06:33;57481.88;;;-140.43;100.00
30714;BME280;17465;47.934;33.430;2023-01-27T09:09:15;57491.41;;;-140.43;100.00
30714;BME280;17465;47.934;33.430;2023-01-27T09:11:46;57491.41;;;-140.43;100.00
30714;BME280;17465;47.934;33.430;2023-01-27T09:14:19;57508.36;;;-140.43;100.00
30714;BME280;17465;47.934;33.430;2023-01-27T09:16:51;57503.06;;;-140.43;100.00
30714;BME280;17465;47.934;33.430;2023-01-27T09:19:25;57507.30;;;-140.43;100.00
30714;BME280;17465;47.934;33.430;2023-01-27T09:22:00;57503.06;;;-140.43;100.00
30714;BME280;17465;47.934;33.430;2023-01-27T09:24:31;57503.06;;;-140.43;100.00
30714;BME280;17465;47.934;33.430;2023-01-27T09:32:47;57460.70;;;-140.43;100.00
30714;BME280;17465;47.934;33.430;2023-01-27T09:35:27;57473.41;;;-140.43;100.00
30714;BME280;17465;47.934;33.430;2023-01-27T09:37:56;57490.35;;;-140.43;100.00
30714;BME280;17465;47.934;33.430;2023-01-27T09:40:52;57492.47;;;-140.43;100.00
30714;BME280;17465;47.934;33.430;2023-01-27T09:43:37;57517.89;;;-140.43;100.00
30714;BME280;17465;47.934;33.430;2023-01-27T10:08:02;57502.00;;;-140.43;100.00
30714;BME280;17465;47.934;33.430;2023-01-27T10:10:49;57520.01;;;-140.43;100.00
30714;BME280;17465;47.934;33.430;2023-01-27T10:22:33;57454.34;;;-140.43;100.00
30714;BME280;17465;47.934;33.430;2023-01-27T10:28:22;57484.00;;;-140.43;100.00
30714;BME280;17465;47.934;33.430;2023-01-27T10:31:00;57457.52;;;-140.43;99.98
30714;BME280;17465;47.934;33.430;2023-01-27T10:34:12;57471.29;;;-140.43;100.00
30714;BME280;17465;47.934;33.430;2023-01-27T15:28:13;57451.16;;;-140.43;100.00
30714;BME280;17465;47.934;33.430;2023-01-27T15:44:37;57481.88;;;-140.43;100.00
30714;BME280;17465;47.934;33.430;2023-01-27T16:09:45;57450.11;;;-140.43;100.00
30714;BME280;17465;47.934;33.430;2023-01-27T16:12:28;57453.28;;;-140.43;100.00
30714;BME280;17465;47.934;33.430;2023-01-27T16:15:35;57472.35;;;-140.43;100.00
30714;BME280;17465;47.934;33.430;2023-01-27T16:20:48;57467.05;;;-140.43;100.00
30714;BME280;17465;47.934;33.430;2023-01-27T16:26:35;57492.47;;;-140.43;100.00
30714;BME280;17465;47.934;33.430;2023-01-27T16:31:53;57473.41;;;-140.43;100.00
30714;BME280;17465;47.934;33.430;2023-01-27T16:34:38;57459.64;;;-140.43;100.00
30714;BME280;17465;47.934;33.430;2023-01-27T16:37:16;57473.41;;;-140.43;100.00
30714;BME280;17465;47.934;33.430;2023-01-27T16:40:01;57470.23;;;-140.43;100.00
30714;BME280;17465;47.934;33.430;2023-01-27T16:45:54;56777.65;;;-140.43;100.00
30714;BME280;17465;47.934;33.430;2023-01-27T16:48:34;57455.40;;;-140.43;100.00
30714;BME280;17465;47.934;33.430;2023-01-27T16:54:17;57485.05;;;-140.43;100.00
30714;BME280;17465;47.934;33.430;2023-01-27T16:56:39;57469.17;;;-140.43;100.00
30714;BME280;17465;47.934;33.430;2023-01-27T16:59:17;57455.40;;;-140.43;100.00
30714;BME280;17465;47.934;33.430;2023-01-27T17:04:55;57473.41;;;-140.43;100.00
30714;BME280;17465;47.934;33.430;2023-01-27T17:07:27;57465.99;;;-140.43;100.00
30714;BME280;17465;47.934;33.430;2023-01-27T17:10:03;57449.05;;;-140.43;100.00
30714;BME280;17465;47.934;33.430;2023-01-27T17:12:39;57468.11;;;-140.43;100.00
30714;BME280;17465;47.934;33.430;2023-01-27T17:15:27;57465.99;;;-140.43;100.00
30714;BME280;17465;47.934;33.430;2023-01-27T17:17:57;57453.28;;;-140.43;100.00
30714;BME280;17465;47.934;33.430;2023-01-27T17:20:31;57453.28;;;-140.43;100.00
30714;BME280;17465;47.934;33.430;2023-01-27T17:23:03;57469.17;;;-140.43;100.00
30714;BME280;17465;47.934;33.430;2023-01-27T17:25:45;57467.05;;;-140.43;100.00
30714;BME280;17465;47.934;33.430;2023-01-27T17:28:24;57490.35;;;-140.43;100.00
30714;BME280;17465;47.934;33.430;2023-01-27T17:31:01;57470.23;;;-140.43;100.00
30714;BME280;17465;47.934;33.430;2023-01-27T17:33:36;57488.23;;;-140.43;100.00
30714;BME280;17465;47.934;33.430;2023-01-27T17:36:09;57471.29;;;-140.43;100.00
30714;BME280;17465;47.934;33.430;2023-01-27T17:38:48;57497.77;;;-140.43;100.00
30714;BME280;17465;47.934;33.430;2023-01-27T17:44:01;57453.28;;;-140.43;100.00
30714;BME280;17465;47.934;33.430;2023-01-27T17:46:33;57500.94;;;-140.43;100.00
30714;BME280;17465;47.934;33.430;2023-01-27T17:49:13;57488.23;;;-140.43;100.00
30714;BME280;17465;47.934;33.430;2023-01-27T17:51:50;57498.82;;;-140.43;100.00
30714;BME280;17465;47.934;33.430;2023-01-27T17:57:21;57495.65;;;-140.43;100.00
30714;BME280;17465;47.934;33.430;2023-01-27T18:02:59;57489.29;;;-140.43;100.00
30714;BME280;17465;47.934;33.430;2023-01-27T18:05:34;57511.54;;;-140.43;100.00
30714;BME280;17465;47.934;33.430;2023-01-27T18:08:09;57479.76;;;-140.43;100.00
30714;BME280;17465;47.934;33.430;2023-01-27T18:10:41;57515.77;;;-140.43;100.00
30714;BME280;17465;47.934;33.430;2023-01-27T18:22:26;57499.88;;;-140.43;100.00
30714;BME280;17465;47.934;33.430;2023-01-27T18:25:00;57504.12;;;-140.43;100.00
30714;BME280;17465;47.934;33.430;2023-01-27T18:27:36;57504.12;;;-140.43;100.00
30714;BME280;17465;47.934;33.430;2023-01-27T18:33:19;57472.35;;;-140.43;100.00
30714;BME280;17465;47.934;33.430;2023-01-27T18:35:57;57487.18;;;-140.43;100.00
30714;BME280;17465;47.934;33.430;2023-01-27T18:38:39;57487.18;;;-140.43;100.00
30714;BME280;17465;47.934;33.430;2023-01-27T18:41:29;57491.41;;;-140.43;100.00
30714;BME280;17465;47.934;33.430;2023-01-27T18:44:07;57479.76;;;-140.43;100.00
30714;BME280;17465;47.934;33.430;2023-01-27T18:46:49;57511.54;;;-140.43;100.00
30714;BME280;17465;47.934;33.430;2023-01-27T18:49:29;57512.59;;;-140.43;100.00
30714;BME280;17465;47.934;33.430;2023-01-27T18:52:16;57512.59;;;-140.43;100.00
30714;BME280;17465;47.934;33.430;2023-01-27T18:55:27;57504.12;;;-140.43;100.00
30714;BME280;17465;47.934;33.430;2023-01-27T18:57:59;57509.41;;;-140.43;100.00
30714;BME280;17465;47.934;33.430;2023-01-27T19:03:24;57469.17;;;-140.43;100.00
30714;BME280;17465;47.934;33.430;2023-01-27T19:05:57;57498.82;;;-140.43;100.00
30714;BME280;17465;47.934;33.430;2023-01-27T19:11:15;57482.94;;;-140.43;100.00
30714;BME280;17465;47.934;33.430;2023-01-27T22:58:31;56861.30;;;-140.43;100.00
30714;BME280;17465;47.934;33.430;2023-01-27T23:01:05;57494.59;;;-140.43;100.00
30714;BME280;17465;47.934;33.430;2023-01-27T23:03:36;57488.23;;;-140.43;100.00
30714;BME280;17465;47.934;33.430;2023-01-27T23:06:08;57507.30;;;-140.43;100.00
30714;BME280;17465;47.934;33.430;2023-01-27T23:08:39;57488.23;;;-140.43;100.00
30714;BME280;17465;47.934;33.430;2023-01-27T23:11:09;57518.95;;;-140.43;100.00
30714;BME280;17465;47.934;33.430;2023-01-27T23:13:40;57492.47;;;-140.43;100.00
30714;BME280;17465;47.934;33.430;2023-01-27T23:16:10;57492.47;;;-140.43;100.00
30714;BME280;17465;47.934;33.430;2023-01-27T23:18:41;57489.29;;;-140.43;100.00
30714;BME280;17465;47.934;33.430;2023-01-27T23:21:11;57482.94;;;-140.43;100.00
30714;BME280;17465;47.934;33.430;2023-01-27T23:23:43;57500.94;;;-140.43;100.00
30714;BME280;17465;47.934;33.430;2023-01-27T23:26:13;57500.94;;;-140.43;100.00
30714;BME280;17465;47.934;33.430;2023-01-27T23:28:44;57507.30;;;-140.43;99.46
30714;BME280;17465;47.934;33.430;2023-01-27T23:31:14;57507.30;;;-140.43;99.26
30714;BME280;17465;47.934;33.430;2023-01-27T23:33:45;57475.52;;;-140.43;99.18
30714;BME280;17465;47.934;33.430;2023-01-27T23:36:15;57485.05;;;-140.43;98.50
30714;BME280;17465;47.934;33.430;2023-01-27T23:38:46;57503.06;;;-140.43;98.02
30714;BME280;17465;47.934;33.430;2023-01-27T23:41:17;57503.06;;;-140.43;98.02
30714;BME280;17465;47.934;33.430;2023-01-27T23:43:52;57475.52;;;-140.43;97.59
30714;BME280;17465;47.934;33.430;2023-01-27T23:46:24;57491.41;;;-140.43;97.01
30714;BME280;17465;47.934;33.430;2023-01-27T23:48:55;57471.29;;;-140.43;97.52
30714;BME280;17465;47.934;33.430;2023-01-27T23:51:26;57462.82;;;-140.43;97.12
30714;BME280;17465;47.934;33.430;2023-01-27T23:53:57;57475.52;;;-140.43;96.47
30714;BME280;17465;47.934;33.430;2023-01-27T23:56:27;57517.89;;;-140.43;96.75
30714;BME280;17465;47.934;33.430;2023-01-27T23:58:59;57494.59;;;-140.43;96.68
